createdAt,value
2019-05-30T00:02:04.610Z,44.40
2019-05-30T00:04:40.192Z,44.40
2019-05-30T00:07:16.201Z,44.20
2019-05-30T00:09:51.733Z,44.00
2019-05-30T00:12:27.815Z,44.40
2019-05-30T00:15:04.976Z,44.00
2019-05-30T00:17:39.884Z,45.00
2019-05-30T00:20:16.336Z,45.40
2019-05-30T00:22:51.936Z,44.90
2019-05-30T00:25:27.431Z,44.60
2019-05-30T00:28:05.153Z,43.90
2019-05-30T00:30:38.246Z,43.50
2019-05-30T00:33:13.684Z,43.40
2019-05-30T00:35:48.993Z,43.40
2019-05-30T00:38:25.016Z,42.90
2019-05-30T00:41:00.546Z,43.50
2019-05-30T00:43:36.505Z,43.00
2019-05-30T00:46:12.355Z,45.00
2019-05-30T00:48:47.959Z,44.20
2019-05-30T00:51:23.482Z,44.20
2019-05-30T00:54:00.591Z,44.80
2019-05-30T00:56:35.668Z,45.50
2019-05-30T00:59:12.386Z,44.10
2019-05-30T01:01:46.411Z,43.40
2019-05-30T01:04:24.597Z,43.50
2019-05-30T01:07:00.926Z,43.90
2019-05-30T01:09:37.130Z,43.60
2019-05-30T01:12:17.268Z,43.10
2019-05-30T01:17:46.490Z,43.80
2019-05-30T01:20:26.374Z,42.70
2019-05-30T01:23:03.272Z,43.40
2019-05-30T01:25:39.171Z,43.50
2019-05-30T01:28:16.402Z,43.30
2019-05-30T01:31:01.225Z,41.80
2019-05-30T01:33:35.195Z,41.90
2019-05-30T01:36:12.632Z,42.10
2019-05-30T01:38:48.190Z,44.10
2019-05-30T01:41:24.008Z,44.20
2019-05-30T01:44:00.124Z,43.20
2019-05-30T01:46:35.978Z,41.60
2019-05-30T01:49:12.684Z,41.10
2019-05-30T01:51:50.208Z,41.20
2019-05-30T01:54:25.695Z,40.80
2019-05-30T01:57:02.523Z,40.00
2019-05-30T01:59:37.832Z,38.90
2019-05-30T02:02:13.550Z,38.60
2019-05-30T02:04:48.882Z,38.90
2019-05-30T02:07:24.643Z,39.50
2019-05-30T02:10:01.147Z,38.40
2019-05-30T02:12:37.351Z,40.00
2019-05-30T02:15:13.239Z,36.80
2019-05-30T02:17:48.999Z,38.50
2019-05-30T02:20:24.622Z,40.10
2019-05-30T02:23:00.165Z,38.20
2019-05-30T02:25:37.171Z,37.90
2019-05-30T02:28:15.452Z,38.30
2019-05-30T02:30:50.294Z,38.90
2019-05-30T02:33:29.243Z,38.90
2019-05-30T02:36:06.322Z,39.60
2019-05-30T02:38:40.021Z,39.30
2019-05-30T02:41:18.071Z,38.80
2019-05-30T02:43:56.410Z,39.20
2019-05-30T02:46:33.064Z,39.60
2019-05-30T02:49:11.092Z,39.60
2019-05-30T02:51:45.376Z,40.20
2019-05-30T02:54:28.562Z,40.60
2019-05-30T02:57:05.416Z,40.20
2019-05-30T02:59:40.548Z,39.80
2019-05-30T03:02:17.687Z,38.90
2019-05-30T03:04:51.285Z,39.50
2019-05-30T03:07:28.505Z,40.10
2019-05-30T03:10:02.680Z,40.00
2019-05-30T03:12:38.548Z,41.10
2019-05-30T03:15:15.710Z,40.50
2019-05-30T03:17:51.802Z,41.10
2019-05-30T03:20:28.116Z,41.40
2019-05-30T03:23:05.780Z,40.60
2019-05-30T03:25:40.830Z,40.50
2019-05-30T03:28:16.160Z,39.40
2019-05-30T03:30:51.928Z,39.70
2019-05-30T03:33:39.432Z,40.20
2019-05-30T03:36:09.754Z,39.50
2019-05-30T03:38:41.582Z,40.40
2019-05-30T03:41:17.344Z,41.00
2019-05-30T03:43:52.860Z,40.50
2019-05-30T03:46:30.941Z,41.20
2019-05-30T03:49:10.204Z,41.00
2019-05-30T03:51:47.978Z,42.30
2019-05-30T03:54:24.021Z,40.70
2019-05-30T03:57:13.413Z,40.80
2019-05-30T03:59:55.186Z,42.90
2019-05-30T04:02:32.771Z,43.10
2019-05-30T04:05:14.175Z,42.60
2019-05-30T04:07:54.437Z,43.40
2019-05-30T04:10:31.723Z,42.50
2019-05-30T04:13:25.929Z,42.50
2019-05-30T04:16:01.386Z,43.10
2019-05-30T04:18:37.172Z,41.50
2019-05-30T04:21:14.208Z,43.00
2019-05-30T04:23:49.887Z,42.30
2019-05-30T04:26:29.044Z,43.20
2019-05-30T04:29:05.095Z,43.50
2019-05-30T04:31:43.428Z,43.40
2019-05-30T04:34:23.316Z,43.90
2019-05-30T04:37:01.434Z,46.00
2019-05-30T04:39:37.007Z,46.00
2019-05-30T04:42:18.920Z,48.90
2019-05-30T04:44:56.361Z,48.60
2019-05-30T04:47:32.072Z,50.10
2019-05-30T04:50:10.138Z,49.50
2019-05-30T04:52:46.071Z,50.50
2019-05-30T04:55:28.570Z,50.70
2019-05-30T04:58:05.202Z,52.70
2019-05-30T05:00:39.248Z,52.60
2019-05-30T05:03:43.579Z,53.20
2019-05-30T05:05:59.270Z,53.10
2019-05-30T05:08:35.879Z,52.90
2019-05-30T05:11:18.707Z,53.40
2019-05-30T05:13:55.136Z,53.70
2019-05-30T05:16:37.333Z,53.50
2019-05-30T05:19:15.000Z,53.60
2019-05-30T05:21:51.988Z,54.10
2019-05-30T05:24:30.749Z,54.50
2019-05-30T05:27:24.187Z,54.30
2019-05-30T05:30:03.142Z,54.40
2019-05-30T05:32:41.206Z,55.00
2019-05-30T05:35:18.675Z,55.00
2019-05-30T05:37:56.881Z,55.20
2019-05-30T05:40:33.893Z,54.50
2019-05-30T05:43:22.485Z,54.90
2019-05-30T05:46:01.050Z,54.90
2019-05-30T05:48:39.472Z,55.70
2019-05-30T05:51:20.619Z,55.20
2019-05-30T05:53:56.124Z,55.10
2019-05-30T05:56:33.715Z,56.90
2019-05-30T05:59:13.986Z,60.50
2019-05-30T06:01:50.664Z,67.60
2019-05-30T06:04:32.719Z,71.20
2019-05-30T06:07:16.073Z,72.90
2019-05-30T06:09:55.833Z,73.20
2019-05-30T06:12:40.444Z,75.20
2019-05-30T06:15:16.839Z,77.00
2019-05-30T06:17:52.492Z,73.50
2019-05-30T06:20:29.466Z,75.10
2019-05-30T06:23:07.870Z,77.00
2019-05-30T06:25:44.746Z,77.50
2019-05-30T06:28:19.959Z,76.20
2019-05-30T06:30:59.086Z,77.60
2019-05-30T06:33:34.031Z,78.20
2019-05-30T06:36:15.125Z,74.60
2019-05-30T06:38:50.652Z,73.20
2019-05-30T06:41:27.647Z,74.90
2019-05-30T06:44:01.386Z,78.50
2019-05-30T06:46:48.845Z,76.00
2019-05-30T06:49:30.926Z,79.00
2019-05-30T06:52:07.733Z,79.80
2019-05-30T06:54:45.721Z,78.70
2019-05-30T06:57:29.347Z,78.60
2019-05-30T07:00:17.526Z,80.50
2019-05-30T07:02:59.210Z,80.40
2019-05-30T07:05:35.477Z,80.50
2019-05-30T07:08:26.714Z,81.30
2019-05-30T07:11:02.387Z,81.70
2019-05-30T07:13:38.293Z,80.10
2019-05-30T07:16:23.282Z,81.70
2019-05-30T07:19:00.925Z,82.50
2019-05-30T07:21:34.643Z,81.90
2019-05-30T07:24:11.342Z,81.70
2019-05-30T07:26:47.729Z,81.60
2019-05-30T07:29:23.949Z,81.50
2019-05-30T07:32:02.120Z,79.80
2019-05-30T07:34:39.652Z,81.40
2019-05-30T07:37:18.550Z,81.50
2019-05-30T07:39:54.560Z,81.10
2019-05-30T07:42:32.681Z,81.20
2019-05-30T07:45:06.840Z,81.70
2019-05-30T07:47:42.513Z,83.50
2019-05-30T07:50:19.362Z,83.90
2019-05-30T07:52:57.555Z,83.90
2019-05-30T07:55:36.757Z,82.70
2019-05-30T07:58:12.456Z,80.50
2019-05-30T08:00:52.641Z,80.40
2019-05-30T08:03:30.824Z,80.10
2019-05-30T08:06:15.986Z,81.90
2019-05-30T08:08:51.416Z,81.80
2019-05-30T08:11:27.460Z,80.70
2019-05-30T08:14:09.930Z,80.30
2019-05-30T08:16:55.932Z,78.60
2019-05-30T08:19:32.758Z,80.30
2019-05-30T08:22:09.327Z,80.40
2019-05-30T08:24:45.822Z,81.30
2019-05-30T08:27:25.658Z,80.50
2019-05-30T08:30:05.487Z,79.20
2019-05-30T08:32:41.314Z,80.00
2019-05-30T08:35:17.246Z,80.30
2019-05-30T08:37:54.142Z,80.20
2019-05-30T08:40:31.202Z,79.20
2019-05-30T08:43:07.078Z,79.70
2019-05-30T08:45:43.856Z,80.10
2019-05-30T08:48:20.638Z,80.40
2019-05-30T08:50:57.291Z,80.00
2019-05-30T08:53:34.452Z,79.80
2019-05-30T08:56:11.597Z,78.90
2019-05-30T08:58:47.547Z,80.30
2019-05-30T09:01:23.670Z,80.00
2019-05-30T09:04:09.897Z,79.70
2019-05-30T09:06:46.115Z,79.30
2019-05-30T09:09:23.430Z,79.60
2019-05-30T09:11:58.771Z,80.10
2019-05-30T09:14:37.372Z,79.70
2019-05-30T09:17:14.497Z,79.90
2019-05-30T09:19:50.402Z,80.90
2019-05-30T09:22:28.249Z,81.50
2019-05-30T09:25:07.987Z,82.70
2019-05-30T09:27:48.377Z,82.20
2019-05-30T09:30:24.504Z,83.60
2019-05-30T09:33:00.859Z,83.80
2019-05-30T09:35:37.009Z,85.60
2019-05-30T09:38:14.405Z,86.50
2019-05-30T09:40:50.284Z,85.50
2019-05-30T09:43:25.860Z,84.90
2019-05-30T09:46:02.313Z,84.40
2019-05-30T09:48:37.873Z,84.60
2019-05-30T09:51:14.612Z,86.20
2019-05-30T09:53:50.548Z,86.80
2019-05-30T09:56:28.215Z,86.90
2019-05-30T09:59:04.137Z,86.00
2019-05-30T10:01:48.326Z,85.40
2019-05-30T10:04:25.321Z,85.50
2019-05-30T10:07:07.331Z,85.40
2019-05-30T10:09:44.228Z,84.70
2019-05-30T10:12:18.159Z,84.80
2019-05-30T10:14:53.753Z,85.00
2019-05-30T10:17:32.842Z,85.40
2019-05-30T10:23:03.697Z,85.30
2019-05-30T10:29:19.318Z,85.30
2019-05-30T10:37:20.923Z,85.20
2019-05-30T10:40:14.716Z,85.00
2019-05-30T10:42:48.883Z,85.10
2019-05-30T10:45:24.755Z,85.00
2019-05-30T10:48:00.484Z,85.20
2019-05-30T10:50:35.940Z,84.70
2019-05-30T10:53:12.083Z,85.50
2019-05-30T10:55:48.205Z,84.70
2019-05-30T10:58:28.463Z,84.80
2019-05-30T11:01:05.071Z,85.80
2019-05-30T11:03:41.610Z,86.10
2019-05-30T11:07:07.605Z,86.80
2019-05-30T11:09:34.333Z,87.50
2019-05-30T11:12:09.895Z,87.10
2019-05-30T11:14:46.812Z,87.30
2019-05-30T11:17:20.656Z,88.20
2019-05-30T11:19:56.232Z,88.50
2019-05-30T11:22:31.883Z,88.60
2019-05-30T11:25:08.779Z,87.20
2019-05-30T11:27:42.918Z,87.40
2019-05-30T11:30:21.649Z,88.70
2019-05-30T11:32:59.381Z,89.70
2019-05-30T11:35:36.418Z,89.40
2019-05-30T11:38:12.023Z,89.50
2019-05-30T11:40:49.284Z,89.40
2019-05-30T11:43:24.915Z,90.00
2019-05-30T11:46:00.773Z,89.80
2019-05-30T11:48:36.408Z,89.50
2019-05-30T11:51:16.960Z,89.00
2019-05-30T11:53:52.308Z,89.10
2019-05-30T11:56:28.808Z,87.90
2019-05-30T11:59:04.560Z,88.60
2019-05-30T12:01:40.539Z,87.60
2019-05-30T12:04:17.236Z,87.90
2019-05-30T12:06:54.894Z,88.20
2019-05-30T12:09:30.483Z,88.80
2019-05-30T12:12:08.844Z,89.10
2019-05-30T12:14:44.484Z,89.00
2019-05-30T12:17:20.870Z,89.20
2019-05-30T12:20:01.904Z,89.50
2019-05-30T12:22:40.092Z,88.20
2019-05-30T12:25:16.041Z,88.40
2019-05-30T12:27:53.988Z,89.20
2019-05-30T12:30:31.218Z,89.00
2019-05-30T12:33:08.228Z,88.60
2019-05-30T12:35:45.094Z,87.90
2019-05-30T12:38:27.700Z,87.90
2019-05-30T12:41:04.191Z,87.70
2019-05-30T12:43:42.872Z,88.00
2019-05-30T12:46:18.310Z,88.60
2019-05-30T12:48:57.308Z,88.40
2019-05-30T12:51:33.912Z,88.80
2019-05-30T12:54:10.235Z,88.00
2019-05-30T12:56:48.851Z,87.80
2019-05-30T12:59:25.323Z,88.10
2019-05-30T13:02:07.283Z,88.00
2019-05-30T13:04:42.211Z,87.90
2019-05-30T13:07:17.679Z,88.80
2019-05-30T13:09:57.306Z,89.70
2019-05-30T13:12:33.969Z,87.30
2019-05-30T13:15:13.738Z,87.90
2019-05-30T13:17:57.201Z,88.30
2019-05-30T13:20:35.874Z,88.20
2019-05-30T13:23:11.626Z,88.10
2019-05-30T13:25:47.742Z,89.20
2019-05-30T13:28:25.285Z,88.50
2019-05-30T13:31:07.068Z,88.30
2019-05-30T13:33:44.054Z,87.90
2019-05-30T13:36:21.240Z,87.90
2019-05-30T13:39:03.265Z,88.50
2019-05-30T13:44:45.350Z,87.80
2019-05-30T13:47:25.771Z,87.70
2019-05-30T13:50:13.596Z,87.70
2019-05-30T13:52:50.514Z,87.50
2019-05-30T13:55:28.206Z,88.20
2019-05-30T13:58:05.641Z,88.60
2019-05-30T14:00:44.548Z,87.90
2019-05-30T14:03:29.275Z,88.00
2019-05-30T14:09:04.252Z,87.40
2019-05-30T14:11:45.388Z,87.50
2019-05-30T14:14:25.605Z,88.30
2019-05-30T14:17:10.398Z,88.00
2019-05-30T14:19:45.827Z,88.10
2019-05-30T14:22:35.170Z,89.30
2019-05-30T14:25:14.350Z,88.40
2019-05-30T14:30:48.987Z,87.70
2019-05-30T14:33:25.690Z,87.60
2019-05-30T14:36:13.363Z,87.00
2019-05-30T14:39:06.947Z,87.40
2019-05-30T14:41:55.443Z,87.50
2019-05-30T14:44:32.088Z,87.60
2019-05-30T14:47:10.524Z,87.20
2019-05-30T14:49:55.738Z,87.20
2019-05-30T14:52:34.981Z,87.00
2019-05-30T15:01:01.127Z,88.10
2019-05-30T15:03:41.253Z,87.90
2019-05-30T15:06:20.041Z,87.80
2019-05-30T15:09:17.803Z,86.90
2019-05-30T15:11:44.776Z,87.50
2019-05-30T15:17:20.964Z,87.90
2019-05-30T15:19:58.424Z,88.00
2019-05-30T15:22:37.409Z,87.40
2019-05-30T15:25:37.156Z,87.70
2019-05-30T15:31:10.266Z,89.00
2019-05-30T15:36:44.386Z,88.80
2019-05-30T15:39:32.725Z,89.10
2019-05-30T15:47:56.960Z,88.20
2019-05-30T15:50:36.154Z,86.60
2019-05-30T15:53:17.284Z,87.10
2019-05-30T15:55:56.061Z,86.70
2019-05-30T15:58:36.936Z,86.70
2019-05-30T16:01:13.920Z,87.00
2019-05-30T16:04:09.945Z,87.20
2019-05-30T16:06:48.819Z,87.10
2019-05-30T16:09:46.066Z,87.40
2019-05-30T16:12:19.313Z,88.00
2019-05-30T16:15:06.528Z,88.30
2019-05-30T16:17:44.509Z,89.00
2019-05-30T16:20:24.272Z,89.70
2019-05-30T16:23:05.457Z,90.20
2019-05-30T16:25:43.922Z,90.10
2019-05-30T16:28:21.795Z,90.30
2019-05-30T16:30:59.998Z,90.20
2019-05-30T16:33:39.391Z,90.20
2019-05-30T16:36:22.645Z,90.20
2019-05-30T16:39:06.795Z,90.10
2019-05-30T16:42:01.430Z,90.20
2019-05-30T16:44:46.789Z,90.20
2019-05-30T16:47:28.121Z,90.70
2019-05-30T16:50:06.570Z,90.70
2019-05-30T16:52:54.167Z,91.00
2019-05-30T16:55:33.350Z,90.80
2019-05-30T16:58:13.374Z,91.20
2019-05-30T17:00:49.778Z,90.80
2019-05-30T17:03:47.337Z,90.70
2019-05-30T17:06:24.343Z,90.90
2019-05-30T17:09:09.142Z,91.00
2019-05-30T17:11:49.419Z,90.70
2019-05-30T17:14:27.665Z,90.80
2019-05-30T17:17:05.930Z,91.20
2019-05-30T17:19:45.264Z,91.20
2019-05-30T17:22:20.874Z,91.30
2019-05-30T17:24:56.967Z,91.20
2019-05-30T17:27:33.031Z,91.20
2019-05-30T17:30:10.816Z,91.50
2019-05-30T17:32:48.407Z,91.30
2019-05-30T17:35:24.094Z,91.50
2019-05-30T17:38:01.542Z,91.60
2019-05-30T17:40:53.487Z,91.90
2019-05-30T17:43:43.163Z,92.10
2019-05-30T17:46:21.202Z,92.30
2019-05-30T17:48:57.397Z,92.60
2019-05-30T17:51:41.629Z,92.40
2019-05-30T17:54:17.193Z,92.30
2019-05-30T17:56:56.102Z,92.20
2019-05-30T17:59:34.276Z,91.90
2019-05-30T18:02:09.867Z,92.10
2019-05-30T18:04:47.415Z,92.30
2019-05-30T18:07:24.864Z,92.20
2019-05-30T18:10:00.997Z,92.50
2019-05-30T18:12:36.846Z,92.80
2019-05-30T18:15:13.595Z,92.40
2019-05-30T18:17:49.776Z,92.40
2019-05-30T18:20:25.409Z,92.40
2019-05-30T18:23:00.985Z,92.30
2019-05-30T18:25:36.671Z,92.60
2019-05-30T18:28:12.309Z,92.70
2019-05-30T18:30:51.028Z,92.30
2019-05-30T18:33:28.226Z,92.50
2019-05-30T18:36:03.350Z,92.50
2019-05-30T18:38:39.443Z,92.60
2019-05-30T18:41:16.606Z,92.60
2019-05-30T18:43:51.857Z,92.70
2019-05-30T18:46:27.266Z,92.50
2019-05-30T18:49:04.631Z,92.60
2019-05-30T18:51:40.222Z,93.00
2019-05-30T18:54:15.742Z,92.80
2019-05-30T18:56:51.307Z,93.00
2019-05-30T18:59:27.319Z,93.20
2019-05-30T19:02:02.768Z,92.80
2019-05-30T19:04:38.644Z,92.90
2019-05-30T19:07:14.260Z,92.90
2019-05-30T19:09:50.317Z,93.00
2019-05-30T19:12:25.903Z,93.00
2019-05-30T19:15:01.880Z,93.00
2019-05-30T19:17:37.741Z,93.10
2019-05-30T19:20:13.814Z,93.20
2019-05-30T19:22:49.356Z,93.00
2019-05-30T19:25:25.028Z,92.90
2019-05-30T19:28:00.803Z,93.20
2019-05-30T19:30:36.969Z,93.30
2019-05-30T19:33:12.565Z,93.30
2019-05-30T19:35:49.678Z,93.40
2019-05-30T19:38:24.538Z,93.70
2019-05-30T19:41:00.487Z,93.60
2019-05-30T19:43:35.906Z,93.40
2019-05-30T19:46:13.176Z,93.70
2019-05-30T19:48:47.989Z,93.40
2019-05-30T19:51:23.412Z,93.60
2019-05-30T19:53:58.905Z,94.20
2019-05-30T19:56:37.404Z,94.10
2019-05-30T19:59:11.284Z,94.00
2019-05-30T20:01:46.984Z,94.00
2019-05-30T20:04:22.726Z,93.80
2019-05-30T20:06:59.133Z,93.60
2019-05-30T20:09:34.864Z,93.50
2019-05-30T20:12:10.847Z,93.30
2019-05-30T20:14:46.339Z,93.20
2019-05-30T20:17:21.913Z,93.30
2019-05-30T20:19:57.696Z,93.30
2019-05-30T20:22:34.165Z,93.40
2019-05-30T20:25:13.196Z,93.30
2019-05-30T20:27:48.680Z,93.20
2019-05-30T20:30:24.825Z,93.30
2019-05-30T20:33:00.127Z,93.30
2019-05-30T20:35:36.718Z,93.30
2019-05-30T20:38:13.328Z,93.40
2019-05-30T20:40:49.098Z,93.30
2019-05-30T20:43:24.658Z,93.20
2019-05-30T20:46:00.079Z,93.40
2019-05-30T20:48:35.310Z,93.50
2019-05-30T20:51:20.679Z,93.40
2019-05-30T20:53:47.619Z,93.40
2019-05-30T20:56:23.311Z,93.50
2019-05-30T20:58:58.595Z,93.40
2019-05-30T21:01:35.501Z,93.20
2019-05-30T21:04:10.754Z,93.40
2019-05-30T21:06:47.501Z,93.50
2019-05-30T21:09:28.883Z,93.40
2019-05-30T21:11:59.696Z,93.30
2019-05-30T21:14:37.427Z,93.20
2019-05-30T21:17:13.779Z,93.20
2019-05-30T21:19:49.488Z,93.20
2019-05-30T21:22:25.067Z,93.10
2019-05-30T21:25:00.745Z,93.50
2019-05-30T21:27:36.920Z,93.30
2019-05-30T21:30:13.191Z,93.60
2019-05-30T21:32:49.344Z,93.40
2019-05-30T21:35:24.741Z,93.40
2019-05-30T21:38:00.574Z,93.50
2019-05-30T21:40:35.510Z,93.30
2019-05-30T21:43:10.851Z,93.50
2019-05-30T21:45:46.864Z,93.30
2019-05-30T21:48:22.568Z,93.20
2019-05-30T21:50:57.896Z,93.70
2019-05-30T21:53:33.706Z,93.70
2019-05-30T21:56:12.312Z,93.70
2019-05-30T21:58:46.367Z,93.70
2019-05-30T22:01:23.841Z,93.60
2019-05-30T22:03:59.571Z,93.60
2019-05-30T22:06:35.545Z,93.70
2019-05-30T22:09:11.898Z,93.60
2019-05-30T22:11:47.722Z,93.40
2019-05-30T22:14:23.582Z,93.20
2019-05-30T22:16:59.045Z,93.40
2019-05-30T22:19:34.595Z,93.50
2019-05-30T22:22:09.950Z,93.20
2019-05-30T22:24:46.187Z,93.60
2019-05-30T22:29:42.163Z,93.30
2019-05-30T22:32:17.936Z,93.10
2019-05-30T22:34:53.850Z,93.00
2019-05-30T22:37:29.368Z,93.00
2019-05-30T22:40:05.351Z,93.50
2019-05-30T22:42:41.205Z,93.00
2019-05-30T22:45:16.838Z,93.30
2019-05-30T22:47:52.537Z,93.30
2019-05-30T22:50:27.982Z,93.20
2019-05-30T22:53:03.590Z,92.60
2019-05-30T22:55:39.113Z,92.60
2019-05-30T22:58:15.028Z,92.90
2019-05-30T23:00:50.460Z,93.00
2019-05-30T23:03:26.386Z,93.00
2019-05-30T23:06:01.879Z,93.00
2019-05-30T23:08:37.295Z,92.80
2019-05-30T23:11:13.832Z,92.60
2019-05-30T23:13:49.962Z,93.00
2019-05-30T23:16:25.614Z,92.40
2019-05-30T23:19:01.343Z,92.80
2019-05-30T23:21:36.868Z,92.80
2019-05-30T23:24:12.588Z,91.90
2019-05-30T23:26:49.333Z,92.10
2019-05-30T23:29:24.553Z,92.40
2019-05-30T23:32:00.003Z,92.40
2019-05-30T23:34:35.870Z,92.10
2019-05-30T23:37:11.579Z,91.70
2019-05-30T23:39:48.640Z,92.10
2019-05-30T23:42:23.892Z,91.80
2019-05-30T23:44:59.570Z,91.40
2019-05-30T23:47:35.296Z,92.40
2019-05-30T23:50:11.207Z,92.40
2019-05-30T23:52:46.749Z,91.70
2019-05-30T23:55:22.394Z,91.50
2019-05-30T23:57:58.641Z,91.40
